createdAt,value
2023-04-26T00:00:19.891Z,87.10
2023-04-26T00:03:21.990Z,87.78
2023-04-26T00:06:23.955Z,87.31
2023-04-26T00:09:25.845Z,87.10
2023-04-26T00:12:27.901Z,87.60
2023-04-26T00:15:29.917Z,87.67
2023-04-26T00:18:31.984Z,87.66
2023-04-26T00:21:33.924Z,87.49
2023-04-26T00:24:36.178Z,87.50
2023-04-26T00:27:38.055Z,87.04
2023-04-26T00:30:47.452Z,86.92
2023-04-26T00:33:51.098Z,87.39
2023-04-26T00:36:53.348Z,87.16
2023-04-26T00:39:57.411Z,87.20
2023-04-26T00:42:59.492Z,86.51
2023-04-26T00:46:01.774Z,88.15
2023-04-26T00:49:03.763Z,88.16
2023-04-26T00:52:06.119Z,88.89
2023-04-26T00:55:08.956Z,89.27
2023-04-26T00:58:11.141Z,89.09
2023-04-26T01:01:13.588Z,88.89
2023-04-26T01:04:17.836Z,89.04
2023-04-26T01:07:20.664Z,89.10
2023-04-26T01:10:22.954Z,89.00
2023-04-26T01:13:26.285Z,88.66
2023-04-26T01:16:28.394Z,88.77
2023-04-26T01:19:30.285Z,88.68
2023-04-26T01:22:33.279Z,88.74
2023-04-26T01:25:35.733Z,88.82
2023-04-26T01:28:37.677Z,89.19
2023-04-26T01:31:40.126Z,88.54
2023-04-26T01:34:41.981Z,88.49
2023-04-26T01:37:46.350Z,88.10
2023-04-26T01:40:48.208Z,88.91
2023-04-26T01:43:50.531Z,89.04
2023-04-26T01:46:53.438Z,89.09
2023-04-26T01:49:55.351Z,89.09
2023-04-26T01:52:57.274Z,89.13
2023-04-26T01:56:02.925Z,89.40
2023-04-26T01:59:06.019Z,89.13
2023-04-26T02:02:08.371Z,89.41
2023-04-26T02:05:13.265Z,89.03
2023-04-26T02:08:15.090Z,89.05
2023-04-26T02:11:17.052Z,88.78
2023-04-26T02:14:19.105Z,88.81
2023-04-26T02:17:21.512Z,89.11
2023-04-26T02:20:23.522Z,89.09
2023-04-26T02:23:25.604Z,89.04
2023-04-26T02:26:27.510Z,88.73
2023-04-26T02:29:42.272Z,88.95
2023-04-26T02:32:46.288Z,89.58
2023-04-26T02:35:48.587Z,89.45
2023-04-26T02:38:51.384Z,89.07
2023-04-26T02:41:53.353Z,89.29
2023-04-26T02:44:55.597Z,88.91
2023-04-26T02:47:58.641Z,88.89
2023-04-26T02:51:00.633Z,89.79
2023-04-26T02:54:04.548Z,89.04
2023-04-26T02:57:08.427Z,88.75
2023-04-26T03:00:11.774Z,88.76
2023-04-26T03:03:14.831Z,88.65
2023-04-26T03:06:16.803Z,89.08
2023-04-26T03:09:18.705Z,88.92
2023-04-26T03:12:20.806Z,88.94
2023-04-26T03:15:23.524Z,89.25
2023-04-26T03:18:25.477Z,88.97
2023-04-26T03:21:28.099Z,89.04
2023-04-26T03:24:30.992Z,89.45
2023-04-26T03:27:32.831Z,88.83
2023-04-26T03:30:35.819Z,89.11
2023-04-26T03:33:37.824Z,88.60
2023-04-26T03:36:40.145Z,88.22
2023-04-26T03:39:42.242Z,88.62
2023-04-26T03:42:45.996Z,87.97
2023-04-26T03:45:49.544Z,87.98
2023-04-26T03:48:51.737Z,86.94
2023-04-26T03:51:53.842Z,86.66
2023-04-26T03:54:55.832Z,85.75
2023-04-26T03:57:57.748Z,84.38
2023-04-26T04:00:59.677Z,83.89
2023-04-26T04:04:02.069Z,82.53
2023-04-26T04:07:04.881Z,82.26
2023-04-26T04:10:10.139Z,82.28
2023-04-26T04:13:12.187Z,80.74
2023-04-26T04:16:14.090Z,80.21
2023-04-26T04:19:16.534Z,78.40
2023-04-26T04:22:19.036Z,78.64
2023-04-26T04:25:22.788Z,77.32
2023-04-26T04:28:25.065Z,77.15
2023-04-26T04:31:27.209Z,76.63
2023-04-26T04:34:29.302Z,76.15
2023-04-26T04:37:33.655Z,75.74
2023-04-26T04:40:35.902Z,74.03
2023-04-26T04:43:38.083Z,73.16
2023-04-26T04:46:41.732Z,72.11
2023-04-26T04:49:43.704Z,72.58
2023-04-26T04:52:46.330Z,71.85
2023-04-26T04:55:49.392Z,69.52
2023-04-26T04:58:52.560Z,70.16
2023-04-26T05:01:56.888Z,68.89
2023-04-26T05:04:59.065Z,67.61
2023-04-26T05:08:01.322Z,67.11
2023-04-26T05:11:03.215Z,66.63
2023-04-26T05:14:05.320Z,65.32
2023-04-26T05:17:07.344Z,64.73
2023-04-26T05:20:11.111Z,62.80
2023-04-26T05:23:13.240Z,63.71
2023-04-26T05:26:18.391Z,62.43
2023-04-26T05:29:20.336Z,62.03
2023-04-26T05:32:34.477Z,62.31
2023-04-26T05:36:02.585Z,61.08
2023-04-26T05:39:06.500Z,62.69
2023-04-26T05:42:08.617Z,58.27
2023-04-26T05:45:11.815Z,59.59
2023-04-26T05:48:14.128Z,58.94
2023-04-26T05:51:16.123Z,58.71
2023-04-26T05:54:18.111Z,59.04
2023-04-26T05:57:20.171Z,57.52
2023-04-26T06:00:23.689Z,57.62
2023-04-26T06:03:26.082Z,57.08
2023-04-26T06:06:29.030Z,56.88
2023-04-26T06:09:34.082Z,56.08
2023-04-26T06:12:35.941Z,56.75
2023-04-26T06:15:37.955Z,56.16
2023-04-26T06:18:40.537Z,48.64
2023-04-26T06:21:42.373Z,50.17
2023-04-26T06:24:44.244Z,50.29
2023-04-26T06:27:46.164Z,52.13
2023-04-26T06:30:48.759Z,49.99
2023-04-26T06:33:50.989Z,47.04
2023-04-26T06:36:53.516Z,46.83
2023-04-26T06:39:57.564Z,47.04
2023-04-26T06:43:01.473Z,44.69
2023-04-26T06:46:12.132Z,45.10
2023-04-26T06:49:14.696Z,44.60
2023-04-26T06:52:16.700Z,46.54
2023-04-26T06:55:19.077Z,45.34
2023-04-26T06:58:21.408Z,44.13
2023-04-26T07:01:23.308Z,42.81
2023-04-26T07:04:25.554Z,42.86
2023-04-26T07:07:27.673Z,42.63
2023-04-26T07:10:29.521Z,42.80
2023-04-26T07:13:31.744Z,40.69
2023-04-26T07:16:33.831Z,41.03
2023-04-26T07:19:36.009Z,40.53
2023-04-26T07:22:38.569Z,39.17
2023-04-26T07:25:41.013Z,39.08
2023-04-26T07:28:42.748Z,40.42
2023-04-26T07:31:45.393Z,38.60
2023-04-26T07:34:47.321Z,34.95
2023-04-26T07:37:49.118Z,38.37
2023-04-26T07:40:51.716Z,38.09
2023-04-26T07:43:54.019Z,37.06
2023-04-26T07:46:56.146Z,37.35
2023-04-26T07:49:58.093Z,36.96
2023-04-26T07:53:00.068Z,37.08
2023-04-26T07:56:05.918Z,37.66
2023-04-26T07:59:07.816Z,37.30
2023-04-26T08:02:09.890Z,36.87
2023-04-26T08:05:12.022Z,35.36
2023-04-26T08:08:13.966Z,37.36
2023-04-26T08:11:16.112Z,38.35
2023-04-26T08:14:18.024Z,37.77
2023-04-26T08:17:19.986Z,36.10
2023-04-26T08:20:21.858Z,37.15
2023-04-26T08:23:23.706Z,38.12
2023-04-26T08:26:25.630Z,37.25
2023-04-26T08:29:28.050Z,37.91
2023-04-26T08:32:33.028Z,38.58
2023-04-26T08:35:34.965Z,38.66
2023-04-26T08:38:36.915Z,38.63
2023-04-26T08:41:49.830Z,37.86
2023-04-26T08:44:53.270Z,39.82
2023-04-26T08:48:03.928Z,39.15
2023-04-26T08:51:09.330Z,38.23
2023-04-26T08:54:12.152Z,37.85
2023-04-26T08:57:14.863Z,38.05
2023-04-26T09:00:18.320Z,38.29
2023-04-26T09:03:23.588Z,36.89
2023-04-26T09:06:28.277Z,37.91
2023-04-26T09:09:42.715Z,37.28
2023-04-26T09:12:44.576Z,36.84
2023-04-26T09:15:48.573Z,36.72
2023-04-26T09:18:57.323Z,37.20
2023-04-26T09:21:59.304Z,35.76
2023-04-26T09:25:04.023Z,35.95
2023-04-26T09:28:20.807Z,36.46
2023-04-26T09:31:42.769Z,37.55
2023-04-26T09:34:47.063Z,37.69
2023-04-26T09:38:11.083Z,37.58
2023-04-26T09:41:14.019Z,37.62
2023-04-26T09:44:23.349Z,36.10
2023-04-26T09:47:25.444Z,36.84
2023-04-26T09:50:29.156Z,36.80
2023-04-26T09:53:47.360Z,36.99
2023-04-26T09:57:01.869Z,36.46
2023-04-26T10:00:09.366Z,37.08
2023-04-26T10:03:12.238Z,35.86
2023-04-26T10:06:14.431Z,35.70
2023-04-26T10:09:16.334Z,34.66
2023-04-26T10:12:20.293Z,35.53
2023-04-26T10:15:22.762Z,35.35
2023-04-26T10:18:24.759Z,35.17
2023-04-26T10:21:31.606Z,36.75
2023-04-26T10:24:35.282Z,36.72
2023-04-26T10:27:55.354Z,34.50
2023-04-26T10:30:59.445Z,36.14
2023-04-26T10:34:22.716Z,34.69
2023-04-26T10:37:24.650Z,36.80
2023-04-26T10:40:31.051Z,36.01
2023-04-26T10:43:33.045Z,36.66
2023-04-26T10:46:37.356Z,36.08
2023-04-26T10:49:47.093Z,36.21
2023-04-26T10:53:04.201Z,36.52
2023-04-26T10:56:06.919Z,37.01
2023-04-26T11:02:52.833Z,36.15
2023-04-26T11:05:55.639Z,37.32
2023-04-26T11:09:00.187Z,35.70
2023-04-26T11:12:04.635Z,34.54
2023-04-26T11:15:07.324Z,34.98
2023-04-26T11:18:09.300Z,36.25
2023-04-26T11:21:13.077Z,35.86
2023-04-26T11:24:16.002Z,36.09
2023-04-26T11:27:17.891Z,34.67
2023-04-26T11:30:20.127Z,34.22
2023-04-26T11:33:25.080Z,34.11
2023-04-26T11:36:27.291Z,34.51
2023-04-26T11:39:29.275Z,35.25
2023-04-26T11:42:31.314Z,34.62
2023-04-26T11:45:35.171Z,34.27
2023-04-26T11:48:39.047Z,33.42
2023-04-26T11:51:41.699Z,33.84
2023-04-26T11:54:44.523Z,34.12
2023-04-26T11:57:46.547Z,34.54
2023-04-26T12:01:04.363Z,33.83
2023-04-26T12:04:10.613Z,34.02
2023-04-26T12:07:12.765Z,33.38
2023-04-26T12:10:16.454Z,33.06
2023-04-26T12:13:19.806Z,33.75
2023-04-26T12:16:26.608Z,34.03
2023-04-26T12:19:33.114Z,31.47
2023-04-26T12:22:35.205Z,31.77
2023-04-26T12:25:42.313Z,30.94
2023-04-26T12:28:44.152Z,32.13
2023-04-26T12:31:46.891Z,32.51
2023-04-26T12:34:48.952Z,32.98
2023-04-26T12:37:53.997Z,32.45
2023-04-26T12:40:56.034Z,32.14
2023-04-26T12:43:58.356Z,32.66
2023-04-26T12:47:00.178Z,32.27
2023-04-26T12:50:02.107Z,31.93
2023-04-26T12:53:04.460Z,31.28
2023-04-26T12:56:06.940Z,32.12
2023-04-26T12:59:11.801Z,32.09
2023-04-26T13:02:13.814Z,33.03
2023-04-26T13:05:15.901Z,32.41
2023-04-26T13:08:17.881Z,31.88
2023-04-26T13:11:19.900Z,32.68
2023-04-26T13:14:23.360Z,32.38
2023-04-26T13:17:26.663Z,32.65
2023-04-26T13:20:30.841Z,30.83
2023-04-26T13:23:32.980Z,31.87
2023-04-26T13:26:34.851Z,31.54
2023-04-26T13:29:36.991Z,32.89
2023-04-26T13:32:38.864Z,31.94
2023-04-26T13:35:40.989Z,32.84
2023-04-26T13:38:45.598Z,32.04
2023-04-26T13:41:47.550Z,33.08
2023-04-26T13:44:51.495Z,31.82
2023-04-26T13:47:53.393Z,32.17
2023-04-26T13:50:58.987Z,33.17
2023-04-26T13:54:00.973Z,33.12
2023-04-26T13:57:04.003Z,32.75
2023-04-26T14:00:08.270Z,32.86
2023-04-26T14:03:13.572Z,33.04
2023-04-26T14:06:16.517Z,32.51
2023-04-26T14:09:18.584Z,32.83
2023-04-26T14:12:20.641Z,33.23
2023-04-26T14:15:22.869Z,32.80
2023-04-26T14:18:24.715Z,31.07
2023-04-26T14:21:26.912Z,31.79
2023-04-26T14:24:28.745Z,33.10
2023-04-26T14:27:30.738Z,32.15
2023-04-26T14:30:32.670Z,32.71
2023-04-26T14:33:35.149Z,32.14
2023-04-26T14:36:37.065Z,32.73
2023-04-26T14:39:39.045Z,32.52
2023-04-26T14:42:45.839Z,32.20
2023-04-26T14:45:48.044Z,32.27
2023-04-26T14:48:50.289Z,32.98
2023-04-26T14:51:53.689Z,32.93
2023-04-26T14:54:55.786Z,34.01
2023-04-26T14:57:57.678Z,34.07
2023-04-26T15:00:59.736Z,34.66
2023-04-26T15:04:01.951Z,34.99
2023-04-26T15:10:08.683Z,34.75
2023-04-26T15:13:10.814Z,35.27
2023-04-26T15:16:12.813Z,35.30
2023-04-26T15:19:14.838Z,35.60
2023-04-26T15:22:16.688Z,35.65
2023-04-26T15:25:18.805Z,36.09
2023-04-26T15:28:20.684Z,36.11
2023-04-26T15:31:22.700Z,36.74
2023-04-26T15:34:25.374Z,36.97
2023-04-26T15:37:27.257Z,36.31
2023-04-26T15:40:29.232Z,36.81
2023-04-26T15:43:31.036Z,36.95
2023-04-26T15:46:32.938Z,36.78
2023-04-26T15:49:34.948Z,37.02
2023-04-26T15:52:39.536Z,36.87
2023-04-26T15:55:41.959Z,36.83
2023-04-26T15:58:47.366Z,36.91
2023-04-26T16:01:49.251Z,37.08
2023-04-26T16:04:51.417Z,37.38
2023-04-26T16:07:53.399Z,37.53
2023-04-26T16:11:02.149Z,37.79
2023-04-26T16:14:04.114Z,37.85
2023-04-26T16:17:06.072Z,37.66
2023-04-26T16:20:08.861Z,37.81
2023-04-26T16:23:11.251Z,38.29
2023-04-26T16:26:13.050Z,38.14
2023-04-26T16:29:15.191Z,38.41
2023-04-26T16:32:17.327Z,38.62
2023-04-26T16:35:19.284Z,38.69
2023-04-26T16:38:22.230Z,38.68
2023-04-26T16:41:24.669Z,38.90
2023-04-26T16:44:26.509Z,38.42
2023-04-26T16:47:28.385Z,38.71
2023-04-26T16:50:30.242Z,39.11
2023-04-26T16:53:32.719Z,39.54
2023-04-26T16:56:34.639Z,39.69
2023-04-26T16:59:36.686Z,39.95
2023-04-26T17:02:40.579Z,40.31
2023-04-26T17:05:47.841Z,40.29
2023-04-26T17:08:49.735Z,40.65
2023-04-26T17:11:51.669Z,40.71
2023-04-26T17:14:53.556Z,40.99
2023-04-26T17:17:55.475Z,41.28
2023-04-26T17:20:57.817Z,41.46
2023-04-26T17:23:59.613Z,41.39
2023-04-26T17:27:01.564Z,41.41
2023-04-26T17:30:03.748Z,41.56
2023-04-26T17:33:07.622Z,41.55
2023-04-26T17:36:09.715Z,41.64
2023-04-26T17:39:11.626Z,41.78
2023-04-26T17:42:13.464Z,41.77
2023-04-26T17:45:15.540Z,41.99
2023-04-26T17:48:17.467Z,42.07
2023-04-26T17:51:19.370Z,42.18
2023-04-26T17:54:22.046Z,42.18
2023-04-26T17:57:24.140Z,42.60
2023-04-26T18:00:26.396Z,42.08
2023-04-26T18:03:31.501Z,42.23
2023-04-26T18:06:33.630Z,42.29
2023-04-26T18:09:35.522Z,42.81
2023-04-26T18:12:38.200Z,43.07
2023-04-26T18:15:40.086Z,42.88
2023-04-26T18:18:42.050Z,43.18
2023-04-26T18:21:43.917Z,43.47
2023-04-26T18:24:47.121Z,43.76
2023-04-26T18:27:49.096Z,43.75
2023-04-26T18:30:56.538Z,44.37
2023-04-26T18:33:58.400Z,44.25
2023-04-26T18:37:00.276Z,44.53
2023-04-26T18:40:02.212Z,44.70
2023-04-26T18:43:04.157Z,44.97
2023-04-26T18:46:07.190Z,45.18
2023-04-26T18:49:09.589Z,45.10
2023-04-26T18:52:11.486Z,45.34
2023-04-26T18:55:14.306Z,45.28
2023-04-26T18:58:16.807Z,45.28
2023-04-26T19:01:18.674Z,46.00
2023-04-26T19:04:20.986Z,45.74
2023-04-26T19:07:23.758Z,45.99
2023-04-26T19:10:25.778Z,46.13
2023-04-26T19:13:27.700Z,45.98
2023-04-26T19:16:29.736Z,46.29
2023-04-26T19:19:32.024Z,46.38
2023-04-26T19:22:33.927Z,46.58
2023-04-26T19:25:36.018Z,46.74
2023-04-26T19:28:38.298Z,47.02
2023-04-26T19:31:40.275Z,47.58
2023-04-26T19:34:42.178Z,47.28
2023-04-26T19:37:44.073Z,47.64
2023-04-26T19:40:46.289Z,47.94
2023-04-26T19:43:48.161Z,48.26
2023-04-26T19:46:50.177Z,48.46
2023-04-26T19:49:53.111Z,48.69
2023-04-26T19:52:54.999Z,48.96
2023-04-26T19:55:56.916Z,49.08
2023-04-26T19:58:58.724Z,49.44
2023-04-26T20:02:00.657Z,49.65
2023-04-26T20:05:02.539Z,49.88
2023-04-26T20:08:04.589Z,49.87
2023-04-26T20:11:07.242Z,50.39
2023-04-26T20:14:09.044Z,51.32
2023-04-26T20:17:11.043Z,50.50
2023-04-26T20:20:13.149Z,50.58
2023-04-26T20:23:15.098Z,51.01
2023-04-26T20:26:17.023Z,51.38
2023-04-26T20:29:18.947Z,50.92
2023-04-26T20:32:21.002Z,51.04
2023-04-26T22:48:44.057Z,57.68
2023-04-26T22:51:57.343Z,57.61
2023-04-26T22:55:08.234Z,57.54
2023-04-26T22:58:10.718Z,57.44
2023-04-26T23:01:12.674Z,58.04
2023-04-26T23:04:14.684Z,58.04
2023-04-26T23:07:16.784Z,57.86
2023-04-26T23:10:18.810Z,57.78
2023-04-26T23:13:21.625Z,57.64
2023-04-26T23:16:24.101Z,57.99
2023-04-26T23:19:26.804Z,57.86
2023-04-26T23:22:28.725Z,58.72
2023-04-26T23:25:30.715Z,58.10
2023-04-26T23:28:32.677Z,58.07
2023-04-26T23:31:34.683Z,57.92
2023-04-26T23:34:36.591Z,58.06
2023-04-26T23:37:38.584Z,58.01
2023-04-26T23:40:40.700Z,58.23
2023-04-26T23:43:42.563Z,58.21
2023-04-26T23:46:44.483Z,58.09
2023-04-26T23:49:46.429Z,58.17
2023-04-26T23:52:48.406Z,58.42
2023-04-26T23:55:50.445Z,58.67
2023-04-26T23:58:52.355Z,58.94
